CST,Max TemperatureF,Mean TemperatureF,Min TemperatureF,Max Dew PointF,MeanDew PointF,Min DewpointF,Max Humidity, Mean Humidity, Min Humidity, Max Sea Level PressureIn, Mean Sea Level PressureIn, Min Sea Level PressureIn, Max VisibilityMiles, Mean VisibilityMiles, Min VisibilityMiles, Max Wind SpeedMPH, Mean Wind SpeedMPH, Max Gust SpeedMPH,PrecipitationIn, CloudCover, Events, WindDirDegrees
2011-11-1,69,56,42,37,34,32,71,54,28,30.24,30.18,30.15,20,12,10,17,5,,0.00,1,,156
2011-11-2,69,56,42,46,38,32,71,51,40,30.21,30.11,29.97,20,12,10,21,10,29,0.00,1,,163
2011-11-3,60,52,44,54,45,36,100,80,39,30.04,29.89,29.77,20,8,2,21,11,26,0.00,7,Rain,186
2011-11-4,51,44,37,48,44,37,100,89,76,30.25,30.18,30.04,10,6,0,14,6,20,0.00,7,Fog,342
2011-11-5,62,48,33,52,39,34,100,84,45,30.25,30.17,30.10,15,6,0,14,2,,0.00,5,Fog,123
2011-11-6,62,56,51,45,42,37,76,59,48,30.23,30.17,30.10,20,12,10,20,13,28,0.00,4,,159
2011-11-7,73,66,60,57,52,46,77,67,53,30.24,30.18,30.12,20,13,10,17,11,20,0.00,5,,158
2011-11-8,71,65,59,61,56,50,100,78,57,30.11,30.01,29.87,20,11,1,17,8,24,0.00,4,Rain,139
2011-11-9,62,50,37,63,46,34,100,83,58,30.20,30.00,29.74,20,12,7,23,10,32,0.00,4,Rain,194
2011-11-10,50,42,33,45,25,16,87,59,26,30.22,30.19,30.16,20,12,10,18,4,26,0.00,0,,252
2011-11-11,60,44,28,39,29,19,93,55,33,30.18,30.05,29.92,20,13,10,21,6,25,0.00,1,,185
2011-11-12,60,52,44,46,40,34,71,62,45,30.03,29.93,29.80,20,12,10,34,15,50,0.00,3,,177
2011-11-13,71,65,59,59,54,46,73,66,59,29.79,29.74,29.67,20,12,10,29,23,51,0.00,5,,182
2011-11-14,75,68,59,64,61,50,100,80,65,29.89,29.75,29.64,20,11,5,29,17,37,0.00,6,Rain-Thunderstorm,194
2011-11-15,60,56,51,57,54,50,100,94,82,29.91,29.85,29.81,20,10,3,12,5,,0.00,8,Rain,160
2011-11-16,57,50,42,57,34,19,100,61,32,30.25,30.06,29.83,20,11,2,21,6,28,0.00,6,Rain,333
2011-11-17,46,39,32,27,21,9,69,53,22,30.39,30.33,30.24,20,12,10,14,4,,0.00,3,,303
2011-11-18,53,42,32,28,22,18,69,46,26,30.34,30.21,30.07,20,13,10,23,11,29,0.00,1,,162
2011-11-19,64,56,48,54,43,30,77,59,49,30.08,30.03,29.92,20,13,10,25,17,32,0.00,6,Rain,179
2011-11-20,60,52,44,57,49,45,100,93,77,30.22,30.14,30.04,10,5,1,17,9,18,0.00,7,Rain-Thunderstorm,19
2011-11-21,51,48,44,52,48,45,100,99,93,30.20,30.13,30.06,5,2,0,10,4,,0.00,8,Fog-Rain-Thunderstorm,355
2011-11-22,62,54,46,63,49,45,100,97,88,30.10,29.96,29.75,15,6,1,17,7,23,0.01,8,Rain-Thunderstorm,296
2011-11-23,48,46,44,45,43,43,100,91,82,30.35,30.25,30.10,20,11,2,9,6,18,0.00,8,,289
2011-11-24,50,46,42,45,43,41,100,93,82,30.38,30.32,30.24,10,7,2,17,8,16,0.00,8,,179
2011-11-25,62,52,41,46,43,39,100,75,54,30.23,30.12,30.04,20,10,3,20,10,29,0.00,3,,168
2011-11-26,64,55,46,59,50,41,100,82,62,30.07,29.96,29.86,20,10,5,17,9,26,0.01,6,Rain,174
2011-11-27,44,42,39,43,38,36,100,90,81,30.12,30.03,29.90,20,10,4,17,9,21,0.00,8,Rain,322
2011-11-28,41,39,37,39,37,36,100,93,87,30.08,29.89,29.72,20,7,2,17,12,25,0.00,8,Rain,337
2011-11-29,42,38,33,39,34,28,100,86,65,30.10,29.90,29.70,15,7,1,18,10,26,0.00,7,Rain-Snow,319
2011-11-30,42,36,30,30,27,21,93,79,42,30.24,30.17,30.09,20,12,10,8,3,,0.00,0,,226